createdAt,value
2022-09-04T00:00:19.436Z,91.93
2022-09-04T00:03:18.869Z,92.18
2022-09-04T00:05:53.426Z,92.61
2022-09-04T00:08:50.247Z,92.79
2022-09-04T00:11:38.266Z,92.92
2022-09-04T00:14:14.661Z,92.69
2022-09-04T00:16:51.363Z,91.76
2022-09-04T00:19:33.812Z,92.36
2022-09-04T00:22:11.226Z,92.16
2022-09-04T00:24:47.813Z,92.67
2022-09-04T00:27:24.810Z,92.79
2022-09-04T00:30:03.283Z,92.67
2022-09-04T00:32:41.541Z,93.78
2022-09-04T00:35:17.956Z,94.03
2022-09-04T00:37:56.915Z,93.83
2022-09-04T00:40:31.448Z,94.43
2022-09-04T00:43:42.588Z,94.68
2022-09-04T00:46:38.550Z,95.90
2022-09-04T00:49:34.062Z,95.29
2022-09-04T00:52:15.444Z,95.81
2022-09-04T00:55:08.656Z,94.91
2022-09-04T00:58:28.086Z,95.03
2022-09-04T01:01:00.533Z,95.65
2022-09-04T01:04:02.501Z,95.45
2022-09-04T01:06:43.724Z,94.93
2022-09-04T01:10:09.764Z,94.48
2022-09-04T01:12:46.798Z,95.23
2022-09-04T01:15:23.785Z,95.68
2022-09-04T01:18:04.361Z,95.50
2022-09-04T01:21:16.633Z,94.87
2022-09-04T01:24:19.814Z,94.96
2022-09-04T01:27:00.404Z,94.96
2022-09-04T01:29:45.259Z,95.32
2022-09-04T01:32:30.491Z,94.99
2022-09-04T01:35:10.344Z,94.91
2022-09-04T01:37:56.788Z,95.52
2022-09-04T01:40:37.067Z,95.22
2022-09-04T01:43:12.584Z,94.97
2022-09-04T01:46:38.853Z,94.79
2022-09-04T01:49:20.725Z,95.73
2022-09-04T01:52:04.394Z,95.69
2022-09-04T01:54:50.274Z,95.65
2022-09-04T01:57:38.565Z,96.36
2022-09-04T02:00:13.103Z,95.86
2022-09-04T02:03:02.400Z,95.88
2022-09-04T02:05:48.425Z,96.82
2022-09-04T02:08:36.896Z,97.91
2022-09-04T02:11:12.396Z,98.14
2022-09-04T02:14:02.342Z,99.63
2022-09-04T02:16:47.113Z,99.31
2022-09-04T02:19:32.921Z,99.02
2022-09-04T02:22:17.459Z,99.32
2022-09-04T02:25:04.698Z,99.11
2022-09-04T02:27:43.048Z,99.11
2022-09-04T02:30:15.254Z,98.90
2022-09-04T02:32:57.613Z,99.34
2022-09-04T02:35:38.143Z,98.75
2022-09-04T02:38:19.761Z,98.57
2022-09-04T02:40:56.470Z,98.35
2022-09-04T02:43:47.997Z,98.25
2022-09-04T02:46:25.780Z,98.61
2022-09-04T02:49:13.367Z,98.93
2022-09-04T02:52:01.980Z,98.89
2022-09-04T02:54:48.659Z,99.71
2022-09-04T02:57:29.982Z,99.53
2022-09-04T03:00:09.298Z,100.00
2022-09-04T03:02:46.525Z,100.00
2022-09-04T03:05:24.657Z,100.00
2022-09-04T03:08:04.336Z,99.87
2022-09-04T03:10:40.605Z,99.19
2022-09-04T03:13:21.113Z,98.95
2022-09-04T03:15:56.994Z,99.57
2022-09-04T03:18:34.565Z,99.48
2022-09-04T03:21:12.300Z,99.06
2022-09-04T03:23:51.895Z,98.97
2022-09-04T03:26:26.367Z,99.04
2022-09-04T03:29:15.120Z,95.96
2022-09-04T03:31:58.664Z,92.11
2022-09-04T03:34:39.791Z,90.47
2022-09-04T03:37:44.418Z,92.83
2022-09-04T03:40:34.403Z,94.33
2022-09-04T03:43:36.797Z,95.26
2022-09-04T03:46:24.870Z,94.48
2022-09-04T03:49:17.427Z,95.00
2022-09-04T03:52:00.717Z,94.66
2022-09-04T03:54:50.243Z,94.59
2022-09-04T03:57:44.020Z,95.97
2022-09-04T04:00:18.418Z,95.53
2022-09-04T04:03:11.090Z,94.87
2022-09-04T04:05:50.195Z,95.57
2022-09-04T04:08:56.799Z,94.42
2022-09-04T04:11:47.274Z,94.58
2022-09-04T04:14:38.502Z,94.71
2022-09-04T04:18:00.230Z,93.87
2022-09-04T04:20:42.471Z,93.79
2022-09-04T04:23:58.140Z,94.26
2022-09-04T04:26:54.046Z,94.15
2022-09-04T04:30:03.207Z,94.08
2022-09-04T04:33:12.081Z,93.37
2022-09-04T04:35:54.917Z,92.42
2022-09-04T04:38:39.413Z,93.19
2022-09-04T04:41:31.833Z,92.40
2022-09-04T04:44:12.954Z,92.90
2022-09-04T04:47:01.326Z,92.37
2022-09-04T04:49:51.121Z,91.48
2022-09-04T04:52:37.092Z,91.91
2022-09-04T04:55:17.257Z,91.56
2022-09-04T04:58:05.538Z,91.68
2022-09-04T05:00:44.779Z,92.18
2022-09-04T05:03:24.951Z,91.46
2022-09-04T05:06:02.631Z,92.08
2022-09-04T05:08:43.855Z,91.71
2022-09-04T05:11:25.992Z,90.81
2022-09-04T05:14:10.110Z,91.11
2022-09-04T05:16:55.972Z,90.97
2022-09-04T05:19:33.892Z,91.83
2022-09-04T05:22:15.308Z,90.53
2022-09-04T05:25:01.195Z,91.87
2022-09-04T05:27:49.818Z,91.99
2022-09-04T05:30:29.578Z,92.15
2022-09-04T05:33:09.742Z,90.61
2022-09-04T05:35:51.330Z,90.13
2022-09-04T05:38:31.161Z,90.10
2022-09-04T05:41:08.256Z,90.86
2022-09-04T05:44:01.676Z,91.68
2022-09-04T05:46:52.028Z,91.50
2022-09-04T05:49:44.884Z,91.84
2022-09-04T05:52:51.826Z,91.44
2022-09-04T05:55:36.449Z,90.31
2022-09-04T05:58:39.223Z,90.13
2022-09-04T06:01:26.012Z,90.18
2022-09-04T06:04:31.636Z,90.25
2022-09-04T06:07:11.836Z,90.42
2022-09-04T06:10:00.266Z,90.11
2022-09-04T06:13:15.508Z,89.75
2022-09-04T06:16:03.796Z,89.70
2022-09-04T06:18:58.802Z,90.25
2022-09-04T06:22:02.716Z,89.84
2022-09-04T06:24:53.880Z,90.26
2022-09-04T06:27:51.560Z,90.36
2022-09-04T06:30:21.105Z,90.76
2022-09-04T06:33:37.771Z,90.87
2022-09-04T06:36:27.813Z,91.62
2022-09-04T06:39:30.601Z,90.81
2022-09-04T06:42:24.204Z,90.67
2022-09-04T06:45:11.243Z,91.25
2022-09-04T06:47:58.307Z,90.91
2022-09-04T06:50:39.079Z,91.21
2022-09-04T06:53:27.094Z,91.77
2022-09-04T06:56:22.833Z,91.57
2022-09-04T06:59:38.345Z,91.59
2022-09-04T07:02:27.328Z,91.79
2022-09-04T07:05:15.683Z,90.77
2022-09-04T07:07:56.477Z,91.17
2022-09-04T07:10:31.924Z,91.43
2022-09-04T07:13:40.523Z,88.85
2022-09-04T07:16:32.091Z,89.44
2022-09-04T07:19:48.850Z,87.26
2022-09-04T07:22:45.623Z,89.38
2022-09-04T07:25:24.295Z,88.10
2022-09-04T07:28:14.287Z,84.71
2022-09-04T07:30:53.717Z,88.02
2022-09-04T07:33:33.394Z,88.84
2022-09-04T07:36:11.601Z,85.13
2022-09-04T07:38:53.928Z,85.78
2022-09-04T07:41:33.489Z,83.61
2022-09-04T07:44:15.217Z,80.44
2022-09-04T07:47:00.450Z,81.91
2022-09-04T07:49:37.415Z,81.18
2022-09-04T07:52:21.524Z,83.09
2022-09-04T07:55:19.093Z,82.66
2022-09-04T07:58:20.412Z,81.88
2022-09-04T08:01:58.615Z,78.65
2022-09-04T08:05:11.359Z,82.19
2022-09-04T08:08:26.695Z,83.66
2022-09-04T08:11:17.538Z,85.29
2022-09-04T08:14:17.278Z,83.43
2022-09-04T08:17:02.056Z,84.62
2022-09-04T08:19:48.994Z,80.16
2022-09-04T08:22:31.529Z,80.23
2022-09-04T08:25:17.076Z,78.52
2022-09-04T08:28:02.980Z,76.30
2022-09-04T08:30:42.048Z,81.77
2022-09-04T08:33:34.341Z,70.17
2022-09-04T08:36:16.313Z,74.53
2022-09-04T08:39:07.400Z,75.27
2022-09-04T08:42:07.009Z,70.58
2022-09-04T08:45:23.262Z,71.90
2022-09-04T08:48:54.777Z,69.73
2022-09-04T08:52:03.529Z,71.68
2022-09-04T08:55:24.202Z,63.66
2022-09-04T08:58:48.263Z,68.48
2022-09-04T09:02:04.207Z,71.30
2022-09-04T09:05:11.211Z,64.23
2022-09-04T09:08:41.570Z,67.16
2022-09-04T09:11:57.746Z,66.07
2022-09-04T09:15:31.200Z,58.55
2022-09-04T09:18:18.221Z,60.25
2022-09-04T09:20:55.066Z,58.58
2022-09-04T09:23:41.708Z,52.91
2022-09-04T09:26:26.671Z,53.75
2022-09-04T09:29:31.161Z,46.86
2022-09-04T09:32:49.587Z,50.36
2022-09-04T09:36:07.756Z,47.41
2022-09-04T09:39:09.801Z,46.19
2022-09-04T09:42:32.510Z,44.39
2022-09-04T09:45:36.789Z,44.96
2022-09-04T09:49:04.220Z,44.91
2022-09-04T09:52:19.366Z,44.91
2022-09-04T09:55:32.751Z,44.33
2022-09-04T09:58:47.957Z,45.05
2022-09-04T10:01:43.786Z,46.05
2022-09-04T10:05:03.614Z,46.42
2022-09-04T10:08:33.825Z,41.37
2022-09-04T10:11:57.365Z,41.30
2022-09-04T10:15:37.687Z,40.60
2022-09-04T10:19:06.442Z,42.00
2022-09-04T10:22:36.558Z,42.01
2022-09-04T10:25:49.494Z,42.81
2022-09-04T10:28:55.838Z,43.25
2022-09-04T10:32:18.013Z,40.61
2022-09-04T10:35:18.947Z,39.86
2022-09-04T10:38:17.708Z,40.03
2022-09-04T10:41:15.692Z,39.26
2022-09-04T10:44:15.275Z,39.25
2022-09-04T10:46:57.649Z,39.18
2022-09-04T10:50:04.872Z,37.80
2022-09-04T10:53:10.644Z,37.19
2022-09-04T10:56:12.802Z,37.29
2022-09-04T10:59:25.868Z,36.52
2022-09-04T11:02:22.684Z,36.71
2022-09-04T11:05:27.824Z,37.07
2022-09-04T11:08:27.709Z,37.30
2022-09-04T11:11:18.260Z,35.79
2022-09-04T11:14:57.466Z,36.59
2022-09-04T11:18:20.578Z,34.59
2022-09-04T11:21:49.519Z,35.26
2022-09-04T11:25:19.404Z,36.17
2022-09-04T11:28:16.837Z,35.08
2022-09-04T11:31:09.081Z,33.24
2022-09-04T11:34:33.755Z,33.75
2022-09-04T11:38:00.071Z,33.91
2022-09-04T11:41:58.452Z,35.42
2022-09-04T11:45:09.801Z,35.82
2022-09-04T11:48:12.105Z,33.98
2022-09-04T11:51:03.404Z,33.54
2022-09-04T11:54:26.495Z,35.19
2022-09-04T11:57:13.557Z,35.33
2022-09-04T12:00:09.514Z,36.06
2022-09-04T12:03:07.941Z,37.86
2022-09-04T12:06:13.639Z,39.69
2022-09-04T12:09:37.337Z,38.85
2022-09-04T12:12:39.482Z,39.33
2022-09-04T12:15:29.003Z,38.80
2022-09-04T12:18:41.916Z,39.31
2022-09-04T12:21:53.947Z,40.40
2022-09-04T12:25:06.914Z,42.58
2022-09-04T12:28:26.915Z,42.91
2022-09-04T12:31:24.460Z,43.74
2022-09-04T12:34:39.654Z,43.42
2022-09-04T12:38:01.970Z,43.36
2022-09-04T12:40:41.297Z,44.76
2022-09-04T12:43:31.643Z,43.81
2022-09-04T12:46:33.381Z,42.05
2022-09-04T12:49:29.140Z,42.44
2022-09-04T12:52:19.260Z,42.32
2022-09-04T12:55:03.337Z,41.47
2022-09-04T12:57:46.741Z,41.26
2022-09-04T13:00:18.618Z,42.19
2022-09-04T13:03:12.194Z,42.00
2022-09-04T13:06:04.426Z,43.06
2022-09-04T13:08:53.668Z,45.74
2022-09-04T13:11:41.515Z,46.62
2022-09-04T13:14:58.744Z,47.79
2022-09-04T13:17:37.293Z,48.36
2022-09-04T13:20:21.040Z,48.94
2022-09-04T13:23:12.731Z,50.07
2022-09-04T13:25:59.685Z,50.66
2022-09-04T13:28:45.381Z,49.67
2022-09-04T13:31:48.213Z,47.63
2022-09-04T13:34:24.142Z,47.55
2022-09-04T13:37:07.105Z,47.35
2022-09-04T13:40:12.539Z,47.36
2022-09-04T13:43:32.805Z,46.83
2022-09-04T13:46:09.067Z,48.26
2022-09-04T13:48:44.240Z,49.24
2022-09-04T13:51:19.053Z,49.53
2022-09-04T13:54:05.255Z,50.06
2022-09-04T13:56:41.254Z,50.71
2022-09-04T13:59:18.499Z,51.15
2022-09-04T14:01:52.582Z,48.59
2022-09-04T14:04:26.765Z,47.16
2022-09-04T14:07:07.353Z,45.53
2022-09-04T14:09:45.123Z,44.50
2022-09-04T14:12:32.969Z,43.68
2022-09-04T14:15:38.234Z,41.53
2022-09-04T14:18:24.779Z,41.34
2022-09-04T14:21:01.226Z,40.95
2022-09-04T14:23:45.976Z,41.73
2022-09-04T14:26:29.894Z,41.48
2022-09-04T14:29:08.013Z,40.75
2022-09-04T14:31:52.621Z,41.26
2022-09-04T14:34:37.641Z,41.49
2022-09-04T14:37:20.340Z,42.60
2022-09-04T14:39:55.317Z,43.35
2022-09-04T14:42:42.812Z,41.58
2022-09-04T14:45:50.379Z,41.69
2022-09-04T14:48:24.510Z,41.81
2022-09-04T14:50:57.854Z,42.05
2022-09-04T14:53:31.963Z,42.65
2022-09-04T14:56:34.753Z,41.79
2022-09-04T14:59:21.601Z,41.26
2022-09-04T15:02:12.884Z,40.99
2022-09-04T15:04:50.344Z,40.76
2022-09-04T15:07:34.468Z,40.30
2022-09-04T15:10:17.598Z,38.03
2022-09-04T15:12:55.898Z,36.73
2022-09-04T15:15:32.988Z,36.66
2022-09-04T15:18:12.413Z,37.88
2022-09-04T15:20:53.819Z,38.90
2022-09-04T15:23:33.361Z,38.43
2022-09-04T15:26:08.994Z,39.13
2022-09-04T15:28:47.001Z,38.60
2022-09-04T15:31:21.039Z,38.86
2022-09-04T15:33:50.610Z,39.86
2022-09-04T15:36:25.844Z,40.12
2022-09-04T15:38:59.221Z,40.92
2022-09-04T15:41:41.025Z,41.42
2022-09-04T15:44:23.238Z,41.75
2022-09-04T15:47:07.579Z,42.57
2022-09-04T15:49:48.119Z,43.41
2022-09-04T15:52:39.424Z,44.13
2022-09-04T15:55:22.255Z,45.23
2022-09-04T15:58:01.508Z,47.94
2022-09-04T16:00:32.986Z,49.17
2022-09-04T16:03:15.280Z,50.63
2022-09-04T16:05:51.479Z,50.51
2022-09-04T16:08:31.887Z,53.39
2022-09-04T16:11:04.590Z,55.33
2022-09-04T16:13:44.428Z,56.93
2022-09-04T16:16:22.987Z,57.05
2022-09-04T16:19:24.032Z,57.12
2022-09-04T16:22:09.345Z,57.09
2022-09-04T16:24:47.340Z,57.39
2022-09-04T16:27:22.082Z,55.99
2022-09-04T16:29:57.390Z,55.95
2022-09-04T16:32:30.059Z,56.54
2022-09-04T16:35:04.949Z,56.57
2022-09-04T16:37:43.480Z,56.72
2022-09-04T16:40:31.081Z,57.33
2022-09-04T16:43:12.205Z,57.16
2022-09-04T16:45:49.925Z,56.60
2022-09-04T16:48:34.149Z,56.02
2022-09-04T16:51:39.238Z,55.99
2022-09-04T16:54:08.147Z,56.64
2022-09-04T16:56:43.622Z,57.71
2022-09-04T16:59:26.424Z,57.67
2022-09-04T17:02:02.503Z,57.48
2022-09-04T17:04:42.670Z,57.11
2022-09-04T17:07:20.443Z,57.45
2022-09-04T17:10:01.905Z,58.80
2022-09-04T17:12:48.468Z,58.04
2022-09-04T17:15:28.834Z,57.91
2022-09-04T17:17:59.481Z,57.65
2022-09-04T17:22:12.960Z,58.16
2022-09-04T17:28:55.573Z,59.29
2022-09-04T17:29:18.803Z,59.05
2022-09-04T17:29:38.318Z,59.48
2022-09-04T17:33:30.598Z,58.92
2022-09-04T17:40:35.593Z,59.88
2022-09-04T17:41:34.629Z,59.56
2022-09-04T17:41:36.712Z,59.61
2022-09-04T17:44:39.072Z,60.31
2022-09-04T17:47:24.829Z,60.22
2022-09-04T17:49:56.592Z,60.64
2022-09-04T17:52:29.106Z,61.90
2022-09-04T17:55:06.776Z,62.18
2022-09-04T17:57:57.429Z,63.00
2022-09-04T18:00:36.150Z,63.53
2022-09-04T18:03:17.539Z,64.34
2022-09-04T18:05:53.655Z,64.85
2022-09-04T18:08:32.617Z,64.53
2022-09-04T18:11:13.346Z,64.59
2022-09-04T18:13:52.200Z,64.66
2022-09-04T18:17:11.228Z,65.20
2022-09-04T18:19:46.556Z,65.20
2022-09-04T18:22:31.917Z,65.52
2022-09-04T18:25:16.760Z,65.88
2022-09-04T18:28:06.174Z,66.41
2022-09-04T18:37:06.096Z,65.97
2022-09-04T18:37:24.172Z,66.62
2022-09-04T18:37:44.245Z,66.56
2022-09-04T18:40:12.787Z,66.10
2022-09-04T18:50:22.333Z,66.51
2022-09-04T18:50:33.449Z,67.32
2022-09-04T18:50:49.496Z,66.89
2022-09-04T18:51:36.756Z,67.61
2022-09-04T18:54:13.300Z,68.36
2022-09-04T18:56:47.990Z,68.09
2022-09-04T18:59:25.003Z,68.07
2022-09-04T19:02:04.512Z,68.31
2022-09-04T19:04:49.479Z,68.87
2022-09-04T19:07:32.005Z,68.94
2022-09-04T19:10:25.781Z,69.42
2022-09-04T19:13:05.362Z,69.11
2022-09-04T19:16:03.025Z,70.00
2022-09-04T19:18:48.322Z,69.92
2022-09-04T19:21:37.473Z,69.96
2022-09-04T19:24:34.588Z,69.80
2022-09-04T19:27:26.853Z,69.50
2022-09-04T19:30:18.160Z,69.49
2022-09-04T19:33:09.739Z,70.15
2022-09-04T19:35:48.738Z,70.62
2022-09-04T19:45:36.196Z,70.14
2022-09-04T19:46:00.787Z,70.81
2022-09-04T19:46:09.185Z,70.92
2022-09-04T19:47:37.336Z,71.65
2022-09-04T19:53:19.048Z,71.99
2022-09-04T19:53:37.828Z,73.57
2022-09-04T19:56:25.099Z,72.81
2022-09-04T19:59:04.975Z,73.48
2022-09-04T20:01:46.622Z,74.43
2022-09-04T20:04:27.817Z,74.53
2022-09-04T20:07:02.843Z,74.78
2022-09-04T20:09:40.014Z,75.33
2022-09-04T20:12:21.926Z,75.91
2022-09-04T20:14:57.208Z,75.62
2022-09-04T20:17:59.896Z,76.81
2022-09-04T20:20:46.635Z,76.42
2022-09-04T20:23:34.078Z,77.85
2022-09-04T20:26:21.611Z,78.13
2022-09-04T20:29:18.269Z,79.01
2022-09-04T20:31:53.872Z,78.68
2022-09-04T20:34:39.071Z,78.78
2022-09-04T20:37:33.198Z,79.54
2022-09-04T20:40:15.833Z,79.70
2022-09-04T20:42:56.357Z,79.94
2022-09-04T20:48:12.624Z,79.80
2022-09-04T20:52:52.408Z,80.13
2022-09-04T20:52:52.614Z,79.35
2022-09-04T20:55:00.311Z,79.82
2022-09-04T21:03:05.155Z,78.75
2022-09-04T21:03:19.031Z,78.97
2022-09-04T21:03:57.001Z,78.31
2022-09-04T21:06:34.892Z,77.80
2022-09-04T21:09:54.859Z,77.42
2022-09-04T21:12:35.371Z,77.26
2022-09-04T21:15:17.680Z,76.74
2022-09-04T21:18:14.378Z,76.72
2022-09-04T21:21:27.385Z,76.47
2022-09-04T21:24:50.385Z,76.02
2022-09-04T21:27:56.364Z,75.59
2022-09-04T21:30:58.316Z,75.46
2022-09-04T21:33:39.582Z,74.39
2022-09-04T21:36:25.687Z,74.60
2022-09-04T21:39:30.309Z,74.29
2022-09-04T21:42:34.856Z,74.38
2022-09-04T21:45:38.658Z,74.52
2022-09-04T21:48:42.215Z,74.75
2022-09-04T21:51:48.278Z,75.26
2022-09-04T21:57:06.854Z,75.71
2022-09-04T22:02:41.530Z,76.79
2022-09-04T22:02:41.704Z,76.34
2022-09-04T22:04:48.682Z,76.36
2022-09-04T22:08:58.732Z,77.79
2022-09-04T22:13:38.176Z,79.17
2022-09-04T22:13:49.907Z,80.91
2022-09-04T22:17:04.775Z,81.11
2022-09-04T22:20:19.871Z,81.85
2022-09-04T22:23:35.518Z,81.66
2022-09-04T22:27:13.297Z,81.45
2022-09-04T22:29:58.396Z,81.53
2022-09-04T22:33:19.680Z,81.92
2022-09-04T22:36:29.337Z,81.20
2022-09-04T22:39:37.902Z,82.08
2022-09-04T22:42:45.576Z,82.17
2022-09-04T22:45:46.195Z,82.27
2022-09-04T22:49:12.648Z,82.24
2022-09-04T22:52:25.785Z,81.96
2022-09-04T22:55:39.582Z,82.38
2022-09-04T22:58:42.418Z,82.57
2022-09-04T23:01:37.030Z,83.24
2022-09-04T23:04:26.547Z,82.86
2022-09-04T23:13:47.800Z,83.09
2022-09-04T23:13:52.839Z,83.04
2022-09-04T23:14:07.708Z,83.75
2022-09-04T23:17:34.482Z,82.24
2022-09-04T23:26:32.532Z,81.69
2022-09-04T23:26:41.675Z,82.31
2022-09-04T23:27:41.050Z,81.47
2022-09-04T23:30:25.215Z,80.77
2022-09-04T23:33:54.347Z,80.87
2022-09-04T23:37:01.480Z,80.60
2022-09-04T23:40:10.371Z,80.40
2022-09-04T23:43:28.384Z,79.94
2022-09-04T23:46:50.325Z,79.11
2022-09-04T23:49:53.092Z,78.83
2022-09-04T23:52:48.799Z,78.71
2022-09-04T23:55:37.296Z,79.35
2022-09-04T23:58:53.952Z,79.08
